createdAt,value
2017-05-08T04:43:48.008Z,77.45
2017-05-08T04:44:13.477Z,77.64
2017-05-08T04:44:38.963Z,77.64
2017-05-08T04:45:04.439Z,77.55
2017-05-08T04:45:29.964Z,77.64
2017-05-08T04:45:55.444Z,77.64
2017-05-08T04:46:20.909Z,77.74
2017-05-08T04:46:46.350Z,78.22
2017-05-08T04:47:11.815Z,78.22
2017-05-08T04:47:37.279Z,78.12
2017-05-08T04:48:02.734Z,78.41
2017-05-08T04:48:28.219Z,78.03
2017-05-08T04:48:53.698Z,78.59
2017-05-08T04:49:19.154Z,78.5
2017-05-08T04:49:44.592Z,78.41
2017-05-08T04:50:10.079Z,78.5
2017-05-08T04:50:35.563Z,78.78
2017-05-08T04:51:01.048Z,78.41
2017-05-08T04:51:26.528Z,78.5
2017-05-08T04:51:51.997Z,78.5
2017-05-08T04:52:17.452Z,78.78
2017-05-08T04:52:42.925Z,78.59
2017-05-08T04:53:08.380Z,79.07
2017-05-08T04:53:33.867Z,79.07
2017-05-08T04:53:59.346Z,79.17
2017-05-08T04:54:24.795Z,78.88
2017-05-08T04:54:50.256Z,78.98
2017-05-08T04:55:15.722Z,79.46
2017-05-08T04:55:41.195Z,79.17
2017-05-08T04:56:06.685Z,79.36
2017-05-08T04:56:32.171Z,79.74
2017-05-08T04:56:57.626Z,79.8
2017-05-08T04:57:23.096Z,79.74
2017-05-08T04:57:48.596Z,80.27
2017-05-08T04:58:14.074Z,80.08
2017-05-08T04:58:39.539Z,79.99
2017-05-08T04:59:05.019Z,80.55
2017-05-08T04:59:30.504Z,80.84
2017-05-08T04:59:55.969Z,80.65
2017-05-08T05:00:21.478Z,81.79
2017-05-08T05:00:46.950Z,81.51
2017-05-08T05:01:12.447Z,81.79
2017-05-08T05:01:37.914Z,82.37
2017-05-08T05:02:03.397Z,82.37
2017-05-08T05:02:28.855Z,82.84
2017-05-08T05:02:54.356Z,82.75
2017-05-08T05:03:19.813Z,83.03
2017-05-08T05:03:45.300Z,83.61
2017-05-08T05:04:10.778Z,83.32
2017-05-08T05:04:36.239Z,83.8
2017-05-08T05:05:01.711Z,84.17
2017-05-08T05:05:27.197Z,84.46
2017-05-08T05:05:52.674Z,84.65
2017-05-08T05:06:18.154Z,85.03
2017-05-08T05:06:43.641Z,85.22
2017-05-08T05:07:09.118Z,85.22
2017-05-08T05:07:34.593Z,85.6
2017-05-08T05:08:00.077Z,85.89
2017-05-08T05:08:25.566Z,86.55
2017-05-08T05:08:51.050Z,86.65
2017-05-08T05:09:16.508Z,86.55
2017-05-08T05:09:42.004Z,86.84
2017-05-08T05:10:07.481Z,87.23
2017-05-08T05:10:32.950Z,87.41
2017-05-08T05:10:58.459Z,86.94
2017-05-08T05:11:23.944Z,87.6
2017-05-08T05:11:49.430Z,87.51
2017-05-08T05:12:14.928Z,87.51
2017-05-08T05:12:40.400Z,87.51
2017-05-08T05:13:05.895Z,87.89
2017-05-08T05:13:31.359Z,88.08
2017-05-08T05:13:56.836Z,88.18
2017-05-08T05:14:22.324Z,88.56
2017-05-08T05:14:47.802Z,88.37
2017-05-08T05:15:13.279Z,88.65
2017-05-08T05:15:38.716Z,88.46
2017-05-08T05:16:04.199Z,88.84
2017-05-08T05:16:29.660Z,88.65
2017-05-08T05:16:55.118Z,88.65
2017-05-08T05:17:20.579Z,88.56
2017-05-08T05:17:46.077Z,89.03
2017-05-08T05:18:11.565Z,88.65
2017-05-08T05:18:37.033Z,88.84
2017-05-08T05:19:02.490Z,88.93
2017-05-08T05:19:27.970Z,89.13
2017-05-08T05:19:53.478Z,88.84
2017-05-08T05:20:18.955Z,88.56
2017-05-08T05:20:44.414Z,88.75
2017-05-08T05:21:09.873Z,88.75
2017-05-08T05:21:35.358Z,88.56
2017-05-08T05:22:00.850Z,88.65
2017-05-08T05:22:26.319Z,88.08
2017-05-08T05:22:51.829Z,87.79
2017-05-08T05:23:17.278Z,88.56
2017-05-08T05:23:42.779Z,88.46
2017-05-08T05:24:08.211Z,88.56
2017-05-08T05:24:33.699Z,87.79
2017-05-08T05:24:59.150Z,88.27
2017-05-08T05:25:24.618Z,88.08
2017-05-08T05:25:50.139Z,87.79
2017-05-08T05:26:15.627Z,88.18
2017-05-08T05:26:41.106Z,87.89
2017-05-08T05:27:06.561Z,87.89
2017-05-08T05:27:32.033Z,88.18
2017-05-08T05:27:57.500Z,88.37
2017-05-08T05:28:22.990Z,88.46
2017-05-08T05:28:48.476Z,88.65
2017-05-08T05:29:13.941Z,87.89
2017-05-08T05:29:39.442Z,88.46
2017-05-08T05:30:04.892Z,88.18
2017-05-08T05:30:30.386Z,88.46
2017-05-08T05:30:55.868Z,88.56
2017-05-08T05:31:21.350Z,87.79
2017-05-08T05:31:46.839Z,88.18
2017-05-08T05:32:12.312Z,87.98
2017-05-08T05:32:37.800Z,87.89
2017-05-08T05:33:03.267Z,88.65
2017-05-08T05:33:28.746Z,88.75
2017-05-08T05:33:54.231Z,88.65
2017-05-08T05:34:19.703Z,88.08
2017-05-08T05:34:45.168Z,88.37
2017-05-08T05:35:10.644Z,88.56
2017-05-08T05:35:36.132Z,88.08
2017-05-08T05:36:01.620Z,88.18
2017-05-08T05:36:27.091Z,88.65
2017-05-08T05:36:52.595Z,88.18
2017-05-08T05:37:18.063Z,88.99
2017-05-08T05:37:43.513Z,88.84
2017-05-08T05:38:08.994Z,88.75
2017-05-08T05:38:34.456Z,88.75
2017-05-08T05:38:59.918Z,88.56
2017-05-08T05:39:25.381Z,88.42
2017-05-08T05:39:50.842Z,88.93
2017-05-08T05:40:16.325Z,88.7
2017-05-08T05:40:41.787Z,88.6
2017-05-08T05:41:07.249Z,88.84
2017-05-08T05:41:32.708Z,88.7
2017-05-08T05:41:58.183Z,88.65
2017-05-08T05:42:23.684Z,88.89
2017-05-08T05:42:49.178Z,88.51
2017-05-08T05:43:14.647Z,88.7
2017-05-08T05:43:40.128Z,88.51
2017-05-08T05:44:05.593Z,88.75
2017-05-08T05:44:31.086Z,88.79
2017-05-08T05:44:56.535Z,88.6
2017-05-08T05:45:22.012Z,88.6
2017-05-08T05:45:47.446Z,88.7
2017-05-08T05:46:12.948Z,88.6
2017-05-08T05:46:38.431Z,88.75
2017-05-08T05:47:03.902Z,88.7
2017-05-08T05:47:29.370Z,88.7
2017-05-08T05:47:54.870Z,88.6
2017-05-08T05:48:20.326Z,88.79
2017-05-08T05:48:45.802Z,88.42
2017-05-08T05:49:11.290Z,88.23
2017-05-08T05:49:36.761Z,87.94
2017-05-08T05:50:02.247Z,87.75
2017-05-08T05:50:27.735Z,88.08
2017-05-08T05:50:53.209Z,87.98
2017-05-08T05:51:18.663Z,87.94
2017-05-08T05:51:44.138Z,88.04
2017-05-08T05:52:09.610Z,87.94
2017-05-08T05:52:35.099Z,88.32
2017-05-08T05:53:00.590Z,87.6
2017-05-08T05:53:26.089Z,87.98
2017-05-08T05:53:51.554Z,88.27
2017-05-08T05:54:17.031Z,87.79
2017-05-08T05:54:42.494Z,87.98
2017-05-08T05:55:08.003Z,87.6
2017-05-08T05:55:33.500Z,87.41
2017-05-08T05:55:58.996Z,87.41
2017-05-08T05:56:24.430Z,87.6
2017-05-08T05:56:49.893Z,87.6
2017-05-08T05:57:15.373Z,87.51
2017-05-08T05:57:40.830Z,87.6
2017-05-08T05:58:06.300Z,86.65
2017-05-08T05:58:31.789Z,87.03
2017-05-08T05:58:57.264Z,86.94
2017-05-08T05:59:22.759Z,87.32
2017-05-08T05:59:48.220Z,87.13
2017-05-08T06:00:13.689Z,87.32
2017-05-08T06:00:39.126Z,87.13
2017-05-08T06:01:04.608Z,86.94
2017-05-08T06:01:30.078Z,87.03
2017-05-08T06:01:55.542Z,86.75
2017-05-08T06:02:21.010Z,87.41
2017-05-08T06:02:46.478Z,87.6
2017-05-08T06:03:11.963Z,86.94
2017-05-08T06:03:37.428Z,87.41
2017-05-08T06:04:02.887Z,87.32
2017-05-08T06:04:28.344Z,86.94
2017-05-08T06:04:53.819Z,86.75
2017-05-08T06:05:19.286Z,87.51
2017-05-08T06:05:44.747Z,87.13
2017-05-08T06:06:10.234Z,87.13
2017-05-08T06:06:35.703Z,86.94
2017-05-08T06:07:01.168Z,86.65
2017-05-08T06:07:26.653Z,86.65
2017-05-08T06:07:52.099Z,86.84
2017-05-08T06:08:17.560Z,87.03
2017-05-08T06:08:43.026Z,87.32
2017-05-08T06:09:08.530Z,87.32
2017-05-08T06:09:33.978Z,87.03
2017-05-08T06:09:59.460Z,86.65
2017-05-08T06:10:24.924Z,86.75
2017-05-08T06:10:50.404Z,87.03
2017-05-08T06:11:15.872Z,86.75
2017-05-08T06:11:41.348Z,86.08
2017-05-08T06:12:06.834Z,85.99
2017-05-08T06:12:32.317Z,86.08
2017-05-08T06:12:57.762Z,86.18
2017-05-08T06:13:23.240Z,85.99
2017-05-08T06:13:48.699Z,86.08
2017-05-08T06:14:14.169Z,86.18
2017-05-08T06:14:39.675Z,86.18
2017-05-08T06:15:05.153Z,86.08
2017-05-08T06:15:30.642Z,86.36
2017-05-08T06:15:56.139Z,86.55
2017-05-08T06:16:21.635Z,86.65
2017-05-08T06:16:47.089Z,86.65
2017-05-08T06:17:12.562Z,86.55
2017-05-08T06:17:38.051Z,86.36
2017-05-08T06:18:03.577Z,86.55
2017-05-08T06:18:29.044Z,86.46
2017-05-08T06:18:54.507Z,86.18
2017-05-08T06:19:19.969Z,85.99
2017-05-08T06:19:45.463Z,85.8
2017-05-08T06:20:10.927Z,85.99
2017-05-08T06:20:36.384Z,85.6
2017-05-08T06:21:01.858Z,85.6
2017-05-08T06:21:27.371Z,85.89
2017-05-08T06:21:52.852Z,85.89
2017-05-08T06:22:18.329Z,86.27
2017-05-08T06:22:43.798Z,85.89
2017-05-08T06:23:09.271Z,85.41
2017-05-08T06:23:34.717Z,84.94
2017-05-08T06:24:00.193Z,84.94
2017-05-08T06:24:25.709Z,84.56
2017-05-08T06:24:51.163Z,84.75
2017-05-08T06:25:16.621Z,84.94
2017-05-08T06:25:42.093Z,84.94
2017-05-08T06:26:07.588Z,84.65
2017-05-08T06:26:33.061Z,84.84
2017-05-08T06:26:58.545Z,84.08
2017-05-08T06:27:24.010Z,84.17
2017-05-08T06:27:49.470Z,84.56
2017-05-08T06:28:14.944Z,84.36
2017-05-08T06:28:40.430Z,83.51
2017-05-08T06:29:05.906Z,83.51
2017-05-08T06:29:31.376Z,83.13
2017-05-08T06:29:56.861Z,82.93
2017-05-08T06:30:22.326Z,82.84
2017-05-08T06:30:47.826Z,82.75
2017-05-08T06:31:13.307Z,82.65
2017-05-08T06:31:38.817Z,82.18
2017-05-08T06:32:04.287Z,82.84
2017-05-08T06:32:29.820Z,82.37
2017-05-08T06:32:55.274Z,82.18
2017-05-08T06:33:20.741Z,81.79
2017-05-08T06:33:46.194Z,81.79
2017-05-08T06:34:11.691Z,81.32
2017-05-08T06:34:37.166Z,81.51
2017-05-08T06:35:02.661Z,81.79
2017-05-08T06:35:28.125Z,82.46
2017-05-08T06:35:53.596Z,82.37
2017-05-08T06:36:19.088Z,82.56
2017-05-08T06:36:44.528Z,82.56
2017-05-08T06:37:10.028Z,81.32
2017-05-08T06:37:35.493Z,81.6
2017-05-08T06:38:01.007Z,81.13
2017-05-08T06:38:26.445Z,81.51
2017-05-08T06:38:51.968Z,80.94
2017-05-08T06:39:17.419Z,80.75
2017-05-08T06:39:42.899Z,80.55
2017-05-08T06:40:08.360Z,80.75
2017-05-08T06:40:33.819Z,80.84
2017-05-08T06:40:59.313Z,80.84
2017-05-08T06:41:24.799Z,80.94
2017-05-08T06:41:50.287Z,80.18
2017-05-08T06:42:15.773Z,80.08
2017-05-08T06:42:41.227Z,80.27
2017-05-08T06:43:06.707Z,80.27
2017-05-08T06:43:32.197Z,80.36
2017-05-08T06:43:57.677Z,80.18
2017-05-08T06:44:23.176Z,80.46
2017-05-08T06:44:48.648Z,80.46
2017-05-08T06:45:14.119Z,80.36
2017-05-08T06:45:39.579Z,79.99
2017-05-08T06:46:05.029Z,79.89
2017-05-08T06:46:30.512Z,79.7
2017-05-08T06:46:55.966Z,79.89
2017-05-08T06:47:21.472Z,79.32
2017-05-08T06:47:46.944Z,78.94
2017-05-08T06:48:12.430Z,78.85
2017-05-08T06:48:37.909Z,79.6
2017-05-08T06:49:03.368Z,79.6
2017-05-08T06:49:28.839Z,79.89
2017-05-08T06:49:54.319Z,79.6
2017-05-08T06:50:19.805Z,79.6
2017-05-08T06:50:45.295Z,79.8
2017-05-08T06:51:10.767Z,78.65
2017-05-08T06:51:36.245Z,79.22
2017-05-08T06:52:01.704Z,78.94
2017-05-08T06:52:27.204Z,79.03
2017-05-08T06:52:52.688Z,78.85
2017-05-08T06:53:18.170Z,78.75
2017-05-08T06:53:43.606Z,78.75
2017-05-08T06:54:09.085Z,78.37
2017-05-08T06:54:34.542Z,78.75
2017-05-08T06:55:00.030Z,78.56
2017-05-08T06:55:25.516Z,78.85
2017-05-08T06:55:51.005Z,79.22
2017-05-08T06:56:16.470Z,79.03
2017-05-08T06:56:41.913Z,79.03
2017-05-08T06:57:07.390Z,78.65
2017-05-08T06:57:32.864Z,79.22
2017-05-08T06:57:58.325Z,78.85
2017-05-08T06:58:23.799Z,78.85
2017-05-08T06:58:49.276Z,78.85
2017-05-08T06:59:14.736Z,78.75
2017-05-08T06:59:40.221Z,79.03
2017-05-08T07:00:05.738Z,78.85
2017-05-08T07:00:31.210Z,79.03
2017-05-08T07:00:56.680Z,79.32
2017-05-08T07:01:22.149Z,79.03
2017-05-08T07:01:47.611Z,78.37
2017-05-08T07:02:13.103Z,78.17
2017-05-08T07:02:38.574Z,78.88
2017-05-08T07:03:04.034Z,79.32
2017-05-08T07:03:29.489Z,79.22
2017-05-08T07:03:54.953Z,79.07
2017-05-08T07:04:20.435Z,78.59
2017-05-08T07:04:45.918Z,78.75
2017-05-08T07:05:11.411Z,78.88
2017-05-08T07:05:36.895Z,78.98
2017-05-08T07:06:02.356Z,78.59
2017-05-08T07:06:27.807Z,78.31
2017-05-08T07:06:53.290Z,78.46
2017-05-08T07:07:18.753Z,78.46
2017-05-08T07:07:44.222Z,78.03
2017-05-08T07:08:09.709Z,78.03
2017-05-08T07:08:35.170Z,78.12
2017-05-08T07:09:00.631Z,77.74
2017-05-08T07:09:26.107Z,77.93
2017-05-08T07:09:51.583Z,78.03
2017-05-08T07:10:17.073Z,78.27
2017-05-08T07:10:42.554Z,77.83
2017-05-08T07:11:08.038Z,78.12
2017-05-08T07:11:33.493Z,78.22
2017-05-08T07:11:58.988Z,77.93
2017-05-08T07:12:24.497Z,77.93
2017-05-08T07:12:49.975Z,78.03
2017-05-08T07:13:15.472Z,77.74
2017-05-08T07:13:40.944Z,77.55
2017-05-08T07:14:06.419Z,77.26
2017-05-08T07:14:31.873Z,77.74
2017-05-08T07:14:57.350Z,77.45
2017-05-08T07:15:22.843Z,77.64
2017-05-08T07:15:48.330Z,77.17
2017-05-08T07:16:13.807Z,77.36
2017-05-08T07:16:39.307Z,77.36
2017-05-08T07:17:04.769Z,77.74
2017-05-08T07:17:30.236Z,77.17
2017-05-08T07:17:55.715Z,77.64
2017-05-08T07:18:21.202Z,77.45
2017-05-08T07:18:46.690Z,77.55
2017-05-08T07:19:12.191Z,77.36
2017-05-08T07:19:37.667Z,77.26
2017-05-08T07:20:03.151Z,77.55
2017-05-08T07:20:28.652Z,77.17
2017-05-08T07:20:54.114Z,77.07
2017-05-08T07:21:19.613Z,77.93
2017-05-08T07:21:45.109Z,77.36
2017-05-08T07:22:10.594Z,77.45
2017-05-08T07:22:36.057Z,76.79
2017-05-08T07:23:01.514Z,76.5
2017-05-08T07:23:27.018Z,76.79
2017-05-08T07:23:52.480Z,76.69
2017-05-08T07:24:17.953Z,76.4
2017-05-08T07:24:43.459Z,76.5
2017-05-08T07:25:08.943Z,76.69
2017-05-08T07:25:34.411Z,76.4
2017-05-08T07:25:59.877Z,76.59
2017-05-08T07:26:25.349Z,76.59
2017-05-08T07:26:50.859Z,76.03
2017-05-08T07:27:16.318Z,76.03
2017-05-08T07:27:41.806Z,76.5
2017-05-08T07:28:07.298Z,76.03
2017-05-08T07:28:32.747Z,76.69
2017-05-08T07:28:58.215Z,76.79
2017-05-08T07:29:23.693Z,76.03
2017-05-08T07:29:49.183Z,76.21
2017-05-08T07:30:14.673Z,75.93
2017-05-08T07:30:40.152Z,75.74
2017-05-08T07:31:05.643Z,75.74
2017-05-08T07:31:31.130Z,75.93
2017-05-08T07:31:56.631Z,75.84
2017-05-08T07:32:22.083Z,75.93
2017-05-08T07:32:47.569Z,75.74
2017-05-08T07:33:13.065Z,75.84
2017-05-08T07:33:38.530Z,76.12
2017-05-08T07:34:04.019Z,76.31
2017-05-08T07:34:29.515Z,76.12
2017-05-08T07:34:54.992Z,75.84
2017-05-08T07:35:20.478Z,75.64
2017-05-08T07:35:45.919Z,75.84
2017-05-08T07:36:11.380Z,75.84
2017-05-08T07:36:36.848Z,75.84
2017-05-08T07:37:02.312Z,76.21
2017-05-08T07:37:27.779Z,76.21
2017-05-08T07:37:53.231Z,76.21
2017-05-08T07:38:18.709Z,76.31
2017-05-08T07:38:44.165Z,75.84
2017-05-08T07:39:09.661Z,75.93
2017-05-08T07:39:35.112Z,75.93
2017-05-08T07:40:00.567Z,76.31
2017-05-08T07:40:26.033Z,76.21
2017-05-08T07:40:51.509Z,75.64
2017-05-08T07:41:16.987Z,76.59
2017-05-08T07:41:42.449Z,75.64
2017-05-08T07:42:07.991Z,76.03
2017-05-08T07:42:33.437Z,75.84
2017-05-08T07:42:58.940Z,75.93
2017-05-08T07:43:24.429Z,76.4
2017-05-08T07:43:49.903Z,76.4
2017-05-08T07:44:15.380Z,75.84
2017-05-08T07:44:40.881Z,75.84
2017-05-08T07:45:06.363Z,75.07
2017-05-08T07:45:31.829Z,74.12
2017-05-08T07:45:57.351Z,73.93
2017-05-08T07:46:22.825Z,74.02
2017-05-08T07:46:48.288Z,74.02
2017-05-08T07:47:13.758Z,74.21
2017-05-08T07:47:39.226Z,74.6
2017-05-08T07:48:04.691Z,74.6
2017-05-08T07:48:30.169Z,74.98
2017-05-08T07:48:55.634Z,74.98
2017-05-08T07:49:21.100Z,75.16
2017-05-08T07:49:46.612Z,74.69
2017-05-08T07:50:12.056Z,75.07
2017-05-08T07:50:37.539Z,74.5
2017-05-08T07:51:03.037Z,74.69
2017-05-08T07:51:28.511Z,74.79
2017-05-08T07:51:53.998Z,74.88
2017-05-08T07:52:19.486Z,74.6
2017-05-08T07:52:44.972Z,74.31
2017-05-08T07:53:10.475Z,74.02
2017-05-08T07:53:35.943Z,74.02
2017-05-08T07:54:01.402Z,73.93
2017-05-08T07:54:26.900Z,74.35
2017-05-08T07:54:52.349Z,74.5
2017-05-08T07:55:17.891Z,73.83
2017-05-08T07:55:43.368Z,73.93
2017-05-08T07:56:08.853Z,73.83
2017-05-08T07:56:34.338Z,73.87
2017-05-08T07:56:59.847Z,73.36
2017-05-08T07:57:25.327Z,73.55
2017-05-08T07:57:50.791Z,73.17
2017-05-08T07:58:16.251Z,72.69
2017-05-08T07:58:41.724Z,73.26
2017-05-08T07:59:07.197Z,73.45
2017-05-08T07:59:32.669Z,73.65
2017-05-08T07:59:58.161Z,73.55
2017-05-08T08:00:23.626Z,73.45
2017-05-08T08:00:49.103Z,73.45
2017-05-08T08:01:14.573Z,73.45
2017-05-08T08:01:40.050Z,73.55
2017-05-08T08:02:05.552Z,73.26
2017-05-08T08:02:31.008Z,72.78
2017-05-08T08:02:56.487Z,73.49
2017-05-08T08:03:21.996Z,73.49
2017-05-08T08:03:47.470Z,73.45
2017-05-08T08:04:12.945Z,72.78
2017-05-08T08:04:38.434Z,72.63
2017-05-08T08:05:03.931Z,72.69
2017-05-08T08:05:29.425Z,72.82
2017-05-08T08:05:54.916Z,72.72
2017-05-08T08:06:20.430Z,72.53
2017-05-08T08:06:45.895Z,72.82
2017-05-08T08:07:11.400Z,72.82
2017-05-08T08:07:36.855Z,72.82
2017-05-08T08:08:02.375Z,73.01
2017-05-08T08:08:27.859Z,72.72
2017-05-08T08:08:53.360Z,73.01
2017-05-08T08:09:18.832Z,73.01
2017-05-08T08:09:44.279Z,72.63
2017-05-08T08:10:09.777Z,72.82
2017-05-08T08:10:35.286Z,72.63
2017-05-08T08:11:00.772Z,72.63
2017-05-08T08:11:26.302Z,73.11
2017-05-08T08:11:51.815Z,73.11
2017-05-08T08:12:17.305Z,73.21
2017-05-08T08:12:42.790Z,72.92
2017-05-08T08:13:08.271Z,72.53
2017-05-08T08:13:33.742Z,73.01
2017-05-08T08:13:59.221Z,73.11
2017-05-08T08:14:24.719Z,72.72
2017-05-08T08:14:50.214Z,72.82
2017-05-08T08:15:15.720Z,73.01
2017-05-08T08:15:41.212Z,73.01
2017-05-08T08:16:06.679Z,72.53
2017-05-08T08:16:32.149Z,72.25
2017-05-08T08:16:57.641Z,72.34
2017-05-08T08:17:23.149Z,72.25
2017-05-08T08:17:48.592Z,72.16
2017-05-08T08:18:14.053Z,72.48
2017-05-08T08:18:39.552Z,72.28
2017-05-08T08:19:05.040Z,72.09
2017-05-08T08:19:30.504Z,72.34
2017-05-08T08:19:55.982Z,71.91
2017-05-08T08:20:21.420Z,71.68
2017-05-08T08:20:46.875Z,72
2017-05-08T08:21:12.356Z,72.09
2017-05-08T08:21:37.848Z,72.09
2017-05-08T08:22:03.281Z,72.28
2017-05-08T08:22:28.769Z,72.28
2017-05-08T08:22:54.216Z,71.91
2017-05-08T08:23:19.683Z,72.09
2017-05-08T08:23:45.148Z,72.09
2017-05-08T08:24:10.645Z,71.43
2017-05-08T08:24:36.119Z,71.81
2017-05-08T08:25:01.570Z,71.33
2017-05-08T08:25:27.034Z,71.33
2017-05-08T08:25:52.500Z,71.43
2017-05-08T08:26:17.967Z,71.72
2017-05-08T08:26:43.479Z,71.04
2017-05-08T08:27:08.906Z,70.95
2017-05-08T08:27:34.390Z,70.86
2017-05-08T08:27:59.869Z,70.67
2017-05-08T08:28:25.337Z,70.67
2017-05-08T08:28:50.791Z,70.57
2017-05-08T08:29:16.269Z,70.57
2017-05-08T08:29:41.761Z,69.9
2017-05-08T08:30:07.203Z,69.81
2017-05-08T08:30:32.658Z,69.9
2017-05-08T08:30:58.142Z,70
2017-05-08T08:31:23.604Z,69.43
2017-05-08T08:31:49.070Z,69.81
2017-05-08T08:32:14.531Z,70
2017-05-08T08:32:39.993Z,70.19
2017-05-08T08:33:05.432Z,70.28
2017-05-08T08:33:30.902Z,70.86
2017-05-08T08:33:56.357Z,70.19
2017-05-08T08:34:21.841Z,70.57
2017-05-08T08:34:47.346Z,70.38
2017-05-08T08:35:12.810Z,70.28
2017-05-08T08:35:38.245Z,70.57
2017-05-08T08:36:03.727Z,70.38
2017-05-08T08:36:29.205Z,69.9
2017-05-08T08:36:54.636Z,70
2017-05-08T08:37:20.106Z,69.52
2017-05-08T08:37:45.588Z,69.52
2017-05-08T08:38:11.031Z,70.19
2017-05-08T08:38:36.519Z,70
2017-05-08T08:39:01.975Z,70.09
2017-05-08T08:39:27.444Z,69.81
2017-05-08T08:39:52.916Z,70.86
2017-05-08T08:40:18.381Z,70.47
2017-05-08T08:40:43.866Z,70.57
2017-05-08T08:41:09.334Z,70.86
2017-05-08T08:41:34.810Z,70.47
2017-05-08T08:42:00.295Z,70.47
2017-05-08T08:42:25.798Z,69.9
2017-05-08T08:42:51.241Z,70.09
2017-05-08T08:43:16.747Z,69.62
2017-05-08T08:43:42.209Z,70.19
2017-05-08T08:44:07.670Z,70.28
2017-05-08T08:44:33.119Z,70.19
2017-05-08T08:44:58.596Z,70
2017-05-08T08:45:24.078Z,70.38
2017-05-08T08:45:49.523Z,70
2017-05-08T08:46:15.018Z,69.81
2017-05-08T08:46:40.487Z,70
2017-05-08T08:47:05.988Z,69.23
2017-05-08T08:47:31.411Z,69.14
2017-05-08T08:47:56.912Z,69.23
2017-05-08T08:48:22.394Z,70.09
2017-05-08T08:48:47.893Z,69.9
2017-05-08T08:49:13.385Z,69.81
2017-05-08T08:49:38.862Z,69.9
2017-05-08T08:50:04.344Z,69.14
2017-05-08T08:50:29.786Z,69.04
2017-05-08T08:50:55.274Z,69.14
2017-05-08T08:51:20.749Z,69.04
2017-05-08T08:51:46.205Z,68.95
2017-05-08T08:52:11.691Z,68.85
2017-05-08T08:52:37.163Z,69.23
2017-05-08T08:53:02.622Z,69.04
2017-05-08T08:53:28.090Z,69.71
2017-05-08T08:53:53.548Z,69.52
2017-05-08T08:54:19.002Z,69.43
2017-05-08T08:54:44.474Z,68.95
2017-05-08T08:55:09.941Z,69.04
2017-05-08T08:55:35.432Z,69.81
2017-05-08T08:56:00.898Z,69.62
2017-05-08T08:56:26.370Z,69.52
2017-05-08T08:56:51.831Z,69.52
2017-05-08T08:57:17.272Z,68.76
2017-05-08T08:57:42.735Z,69.04
2017-05-08T08:58:08.218Z,69.23
2017-05-08T08:58:33.768Z,68.95
2017-05-08T08:58:59.212Z,69.23
2017-05-08T08:59:24.670Z,69.14
2017-05-08T08:59:50.161Z,68.95
2017-05-08T09:00:15.604Z,69.33
2017-05-08T09:00:41.103Z,69.14
2017-05-08T09:01:06.578Z,69.14
2017-05-08T09:01:32.040Z,69.14
2017-05-08T09:01:57.505Z,68.95
2017-05-08T09:02:22.974Z,69.04
2017-05-08T09:02:48.449Z,68.76
2017-05-08T09:03:13.916Z,68.95
2017-05-08T09:03:39.395Z,68.95
2017-05-08T09:04:04.887Z,69.14
2017-05-08T09:04:30.362Z,69.23
2017-05-08T09:04:55.836Z,69.14
2017-05-08T09:05:21.309Z,68.85
2017-05-08T09:05:46.795Z,69.14
2017-05-08T09:06:12.265Z,68.85
2017-05-08T09:06:37.754Z,69.04
2017-05-08T09:07:03.226Z,69.04
2017-05-08T09:07:28.688Z,68.85
2017-05-08T09:07:54.148Z,68.95
2017-05-08T09:08:19.630Z,68.85
2017-05-08T09:08:45.098Z,69.43
2017-05-08T09:09:10.565Z,68.95
2017-05-08T09:09:36.032Z,69.23
2017-05-08T09:10:01.473Z,68.95
2017-05-08T09:10:26.980Z,69.23
2017-05-08T09:10:52.451Z,69.52
2017-05-08T09:11:17.916Z,69.23
2017-05-08T09:11:43.389Z,68.95
2017-05-08T09:12:08.870Z,69.04
2017-05-08T09:12:34.384Z,69.14
2017-05-08T09:12:59.867Z,68.57
2017-05-08T09:13:25.325Z,68.66
2017-05-08T09:13:50.793Z,68.76
2017-05-08T09:14:16.242Z,68.57
2017-05-08T09:14:41.698Z,68.66
2017-05-08T09:15:07.185Z,69.04
2017-05-08T09:15:32.641Z,68.85
2017-05-08T09:15:58.146Z,69.04
2017-05-08T09:16:23.615Z,69.33
2017-05-08T09:16:49.070Z,68.76
2017-05-08T09:17:14.584Z,69.04
2017-05-08T09:17:40.086Z,68.95
2017-05-08T09:18:05.581Z,69.04
2017-05-08T09:18:31.084Z,69.23
2017-05-08T09:18:56.558Z,69.33
2017-05-08T09:19:22.070Z,69.43
2017-05-08T09:19:47.541Z,69.14
2017-05-08T09:20:13.033Z,69.04
2017-05-08T09:20:38.509Z,69.23
2017-05-08T09:21:03.966Z,69.04
2017-05-08T09:21:29.427Z,69.14
2017-05-08T09:21:54.898Z,69.23
2017-05-08T09:22:20.359Z,69.43
2017-05-08T09:22:45.832Z,68.95
2017-05-08T09:23:11.326Z,69.14
2017-05-08T09:23:36.813Z,69.04
2017-05-08T09:24:02.297Z,69.04
2017-05-08T09:24:27.776Z,69.23
2017-05-08T09:24:53.276Z,69.14
2017-05-08T09:25:18.718Z,69.23
2017-05-08T09:25:44.186Z,69.04
2017-05-08T09:26:09.676Z,69.33
2017-05-08T09:26:35.145Z,68.95
2017-05-08T09:27:00.617Z,68.47
2017-05-08T09:27:26.111Z,69.14
2017-05-08T09:27:51.581Z,68.66
2017-05-08T09:28:17.060Z,68.18
2017-05-08T09:28:42.521Z,68.09
2017-05-08T09:29:08.012Z,68.38
2017-05-08T09:29:33.468Z,68.57
2017-05-08T09:29:58.934Z,68.57
2017-05-08T09:30:24.431Z,68.85
2017-05-08T09:30:49.915Z,68.18
2017-05-08T09:31:15.380Z,68.47
2017-05-08T09:31:40.870Z,68.57
2017-05-08T09:32:06.362Z,68.18
2017-05-08T09:32:31.818Z,68.28
2017-05-08T09:32:57.312Z,68.85
2017-05-08T09:33:22.805Z,68.47
2017-05-08T09:33:48.247Z,69.04
2017-05-08T09:34:13.750Z,69.43
2017-05-08T09:34:39.222Z,69.43
2017-05-08T09:35:04.698Z,69.14
2017-05-08T09:35:30.173Z,69.04
2017-05-08T09:35:55.627Z,69.14
2017-05-08T09:36:21.118Z,69.14
2017-05-08T09:36:46.562Z,68.95
2017-05-08T09:37:12.068Z,69.23
2017-05-08T09:37:37.540Z,68.76
2017-05-08T09:38:03.040Z,68.57
2017-05-08T09:38:28.522Z,68.57
2017-05-08T09:38:53.986Z,68.47
2017-05-08T09:39:19.434Z,68.57
2017-05-08T09:39:44.930Z,68.47
2017-05-08T09:40:10.444Z,69.04
2017-05-08T09:40:35.929Z,68.95
2017-05-08T09:41:01.421Z,69.04
2017-05-08T09:41:26.869Z,69.04
2017-05-08T09:41:52.334Z,68.76
2017-05-08T09:42:17.817Z,69.04
2017-05-08T09:42:43.323Z,69.52
2017-05-08T09:43:08.808Z,69.04
2017-05-08T09:43:34.258Z,69.04
2017-05-08T09:43:59.727Z,69.33
2017-05-08T09:44:25.207Z,69.14
2017-05-08T09:44:50.679Z,69.33
2017-05-08T09:45:16.180Z,69.04
2017-05-08T09:45:41.606Z,69.04
2017-05-08T09:46:07.070Z,68.95
2017-05-08T09:46:32.521Z,69.04
2017-05-08T09:46:57.979Z,69.71
2017-05-08T09:47:23.461Z,69.71
2017-05-08T09:47:48.929Z,69.14
2017-05-08T09:48:14.421Z,69.43
2017-05-08T09:48:39.901Z,69.04
2017-05-08T09:49:05.373Z,69.04
2017-05-08T09:49:30.881Z,69.23
2017-05-08T09:49:56.353Z,69.33
2017-05-08T09:50:21.885Z,69.62
2017-05-08T09:50:47.282Z,70.09
2017-05-08T09:51:12.786Z,69.81
2017-05-08T09:51:38.273Z,69.71
2017-05-08T09:52:03.716Z,69.71
2017-05-08T09:52:29.160Z,69.9
2017-05-08T09:52:54.659Z,69.93
2017-05-08T09:53:20.148Z,70.03
2017-05-08T09:53:45.636Z,70.13
2017-05-08T09:54:11.096Z,70.22
2017-05-08T09:54:36.569Z,70.22
2017-05-08T09:55:02.039Z,70.13
2017-05-08T09:55:27.509Z,69.56
2017-05-08T09:55:52.944Z,70.03
2017-05-08T09:56:18.414Z,69.74
2017-05-08T09:56:43.879Z,69.37
2017-05-08T09:57:09.367Z,69.17
2017-05-08T09:57:34.834Z,69.37
2017-05-08T09:58:00.331Z,69.46
2017-05-08T09:58:25.796Z,69.56
2017-05-08T09:58:51.307Z,69.74
2017-05-08T09:59:16.772Z,69.27
2017-05-08T09:59:42.236Z,69.27
2017-05-08T10:00:07.727Z,69.08
2017-05-08T10:00:33.209Z,69.02
2017-05-08T10:00:58.694Z,69.11
2017-05-08T10:01:24.164Z,69.02
2017-05-08T10:01:49.620Z,68.92
2017-05-08T10:02:15.103Z,69.4
2017-05-08T10:02:40.566Z,69.4
2017-05-08T10:03:06.024Z,69.21
2017-05-08T10:03:31.511Z,69.59
2017-05-08T10:03:56.955Z,69.02
2017-05-08T10:04:22.444Z,68.82
2017-05-08T10:04:47.898Z,68.63
2017-05-08T10:05:13.364Z,68.92
2017-05-08T10:05:38.836Z,68.82
2017-05-08T10:06:04.329Z,68.16
2017-05-08T10:06:29.791Z,67.97
2017-05-08T10:06:55.283Z,68.06
2017-05-08T10:07:20.765Z,67.97
2017-05-08T10:07:46.245Z,68.44
2017-05-08T10:08:11.727Z,68.06
2017-05-08T10:08:37.204Z,68.16
2017-05-08T10:09:02.719Z,68.54
2017-05-08T10:09:28.149Z,68.54
2017-05-08T10:09:53.637Z,68.35
2017-05-08T10:10:19.099Z,68.44
2017-05-08T10:10:44.588Z,68.35
2017-05-08T10:11:10.062Z,68.54
2017-05-08T10:11:35.574Z,68.16
2017-05-08T10:12:01.049Z,68.26
2017-05-08T10:12:26.514Z,68.44
2017-05-08T10:12:52.006Z,68.26